SMRA20 UAOL 191500
AAXX 19151

=
21802 42999 02703 11351 21392 30359 40387 52009=
21908 42999 00000 11497 21512 30303 40401 52001=
21921 41997 82003 11390 21412 30283 40335 58008 77072 86037=
21946 41/93 /3011 11300 21335 30058 40144 52003 73833 333 91015 91118=
21982 41998 02608 11301 21344 30205 40235 52013 73630 333 91115=
22100 22/// /0000 11238 21264 39951 40109 52016 333 60002=
22408 22970 80000 11123 21137 39968 40126 52020 85071 333   69982=
22520 21496 81404 11048 21061 30128 40137 52020 78582 889// 333 60012 88916=
22563 11897 81502 11083 21106 30189 40226 53010 69962 70272 8807/ 333 11083 555 51109 53008=
22820 22498 81303 11053 21071 39992 40132 52007 8455/ 333   69902=
22845 11598 81303 11052 21073 30015 40176 52007 60022 70272 8652/ 333 11051 86621 555 51073 53007=
23022 11997 21509 11176 21217 30305 40379 54000 60002 73630 80001 333 11158 91011 91111 555 51177 53011=
23205 12698 81805 11135 21165 30287 40302 52010 69902 8653/ 333 11135 86641 555 51150 53011=
23330 11396 81502 11199 21244 30424 40447 52009 69922 77172 8577/ 333 11199 85707 555 51229 53005=
23418 12965 21402 11170 21189 30280 40360 52010 60002 82030 333   11165 555   51183 53007=
23426 11965 83602 11208 21244 30414 40440 52007 69932 77172 8802/ 333 11208 555 51227 53005=
23631 11497 81201 11232 21257 30390 40437 52008 69952 77172 84506 333 11201 84614 555 51208 53004=
23711 12498 81502 11154 21175 30191 40376 52013 69902 8593/ 333 11138 85916 555 51153 53003=
23724 11998 80000 11188 21216 30347 40418 52010 60002 77072 8801/ 333 11182 555 51191 53002=
23734 11596 80000 11197 21223 30334 40436 52012 69932 77172 8752/ 333 11181 93505 555 51185 53005=
23823 11598 80000 11203 21225 30276 40431 51012 69902 72272 87502 333 11181 93505 555 51194 53002=
23933 11996 80201 11200 21224 30375 40438 52013 69942 77172 8807/ 333 11193 93501 555 51204 53004=
23939 11998 81002 11125 21139 30379 40423 52011 69922 70272 8803/ 333 11120 93506 555 51161 53005=
23947 11997 80802 11162 21189 30366 40442 52014 69952 77872 8807/ 333 11139 555 51149 53004=
24125 83/// /2803 11473 21517 30121 40462 54001=
24136 42999 10000 11509 21535 30287 40409 58005 81010=
24143 42999 80000 11387 21420 30299 40357 58006 80001=
24266 41997 80000 11405 21434 30112 40317 57011 77177 85036=
24329 42999 52303 11486 21512 30111 40480 52005 80005=
24343 42998 83603 11367 21388 30208 40345 58002 80008=
24382 41997 80000 11407 21433 39991 40284 58002 77077 80007=
24639 41995 62501 11426 21461 30206 40388 52009 71022 80001=
24641 41998 02401 11439 21468 30196 40366 52008 71200=
24652 42997 00000 11473 21496 30193 40342 52004=
24656 42999 82303 11434 21457 30204 40326 52006 80006=
24661 41998 00000 11461 21486 39996 40314 51003 74000=
24671 42999 23201 11496 21524 39771 40389 51002 80001=
24688 41999 00000 11568 21581 39339 40488 58005 70400=
24724 41997 83603 11351 21374 39802 40411 52007 77173 8802/=
24738 41994 00000 11445 21464 30179 40391 52003 71000=
24768 42997 32302 11437 21473 30041 40307 52009 80001=
24790 41997 00000 11543 21559 39445 40452 54001 77670=
24817 419// 60000 11476 21506 30032 40468 52010 74440 80001=
24856 41993 02602 11461 21481 30160 40346 52011 74444=
24923 42999 52403 11410 21444 30069 40432 52006 80005=
24944 41998 80000 11390 21412 30049 40391 52007 77172 80007=
24951 42999 52702 11392 21418 30180 40376 52009 80001=
24962 41995 80000 11414 21450 30110 40329 52009 72272 82031=
24967 41997 82201 11405 21427 30092 40350 52014 77172 80007=
24982 42699 33402 11311 21368 39714 40273 57003 83500=
24988 42999 52902 11362 21402 39967 40255 57005 80001=
25062 42999 01801 11317 21354 30260 40264 52005 333 91103=
25123 41996 01304 11332 21362 30217 40254 52006 73630=
25138 41999 20000 11425 21469 30146 40289 54000 77670 80001 333 91103=
25206 42999 21902 11368 21398 30199 40245 52002 80001=
25248 42998 00000 11504 21548 39819 40363 58003 333 91100=
25282 42998 00000 11330 21360 30280 40287 52008 333 91101=
25378 42397 50000 11268 21300 30252 40284 52011 82601 333 91101=
25399 42984 20000 11284 21322 30279 40289 52011 80001 333 91102=
25400 41996 00000 11452 21476 30192 40258 58002 71000=
25428 41945 00000 11496 21551 39926 40329 58004 71000 333 91102=
25551 41998 23201 11358 21400 30264 40299 58002 77670 80001 333 91102=
25563 42984 63206 11313 21350 30208 40296 52011 80001 333 91109=
25703 41996 00000 11520 21576 30012 40342 54000 77670=
25705 41993 80000 11473 21525 39928 40328 57002 74842 80001=
25745 42/// /0805 11270 21305 30198 40255 57011=
25913 42999 00704 11201 21268 30059 40219 57007=
25927 41999 23104 11303 21328 30236 40244 57009 70230 80001=
25941 41596 81603 11218 21243 30195 40215 56003 78582 889//=
26038 21258 81202 11018 21023 30019 40061 52010 71022 886// 333 11013 21036 60007 88705 555 21036 51038=
26045 27759 81500 11020 21033 30062 40066 52008 71010 88/// 333 11011 21030 60007 88/57 555 21030 51033=
26058 27761 80902 11031 21041 30030 40065 54000 70000 88/// 333 11023 21032 60007 88/57 555 21032 51033=
26115 27019 80101 11016 21017 30048 40056 52013 71011 88/// 333 11011 21045 60007 88/02 555 21045 51035=
26134 27346 70601 11023 21023 39994 40061 52011 71011 87///  333  11014 21026 60007 87/09  555  1/101 21026 3/102 51032 52102=
26135 27356 80902 11020 21031 39983 40058 52008 71011 88/// 333 11013 21028 60007 88/07 555 1/101 21028 3/101 51030 52102=
26145 27358 80601 11026 21032 30021 40062 52002 71011 88///  333  11018 21030 60007 88/09  555  1/101 21030 3/102 51030 52102=
26157 22597 70703 11027 21042 30013 40064 55001 87500 333   69902=
26214 21741 70402 11012 21016 30041 40049 52014 71022 86530  333  11008 21035 60007 86656  555  1/103 21035 3/107 51028=
26233 27752 80401 11027 21037 39945 40054 52005 71011 88///  333  11017 21029 60007 88/56  555  1/101 21029 3/102 51028 52102=
26242 21257 80702 11026 21040 39965 40054 52005 71022 886// 333 11014 21028 60007 88705 555 1/103 21028 3/104 51025 52102=
26247 27/57 /0602 11022 21034 39964 40045 52005 71011 333 11012 21022 60007 555 21022 51023=
26258 22598 80803 11024 21044 39996 40052 53004 886// 333   60002=
26313 43/// /0702 11002 21030 40045 52014=
26346 42497 80802 11038 21039 40046 52008 886//=
26359 22497 80702 11026 21048 39917 40044 53007 889// 333   60002=
26406 42697 73601 11028 21034 40039 52020 82530=
26416 43/// /0402 11019 21043 39895 40036 52016 333 91003=
26422 42/97 80202 11006 21029 40035 52013 8755/=
26509 42961 20102 11016 21042 30025 40034 52021 80002 333 91004 91105=
26518 41620 80203 11029 21042 40027 52020 77177 8802/ 333 88540 91005 91106=
26524 41719 80301 11023 21029 39891 40026 53017 77177 8802/ 333 88550 91004 91105=
26531 42569 80702 11013 21039 40023 52014 885// 333 88623 91003 91107=
26544 43/// /0302 11013 21035 39898 40021 53011 333 91004=
26554 32560 70703 11016 21036 39859 40025 53008 8653/=
26629 41358 80103 11018 21021 39909 40006 52022 77172 8872/ 333 88707 91004 91105=
26633 41965 80602 11013 21042 39879 40011 53013 77172 8807/ 333 91005 91107=
26643 32565 70602 11012 21025 39849 40012 53010 875//=
26657 32565 70802 11014 21028 39764 40003 53009 875// 333 87627=
26666 /2460 81401 11012 21035 39808 40025 53006 886// 333 88710 555 69908=
26730 41528 80402 11018 21029 39802 49996 52017 77172 8802/ 333 88520 91003 91105=
26763 /1350 81404 11019 21030 39791 40021 53006 77172 8872/ 333 88708 555 69908=
26825 /1344 83303 11018 21024 39793 49978 52026 77172 8872/ 333 88707 555 69958=
26832 /1335 80601 11018 21026 39791 49986 52020 77172 8872/ 333 86709 555 60018=
26850 /1457 81203 11019 21033 39719 49999 52010 77172 885// 333 88711 91110 555 60018=
26855 /1442 81202 11017 21018 39776 49995 53009 77172 8672/ 555 69968=
26863 /1358 81105 11013 21023 39776 40015 53004 71082 886// 333 88709 555 69948=
26864 32597 71403 11007 21023 39815 40007 53007 875// 333 87630=
26878 /1528 71204 11020 21030 39816 40027 52009 71072 875// 555 69958=
26887 /1361 81104 11039 21049 39833 40043 53009 77172 8872/ 333 88707 91110 555 60028=
26941 /1435 80901 11005 21014 39735 49973 52016 77172 8802/ 555 60028=
26951 /1450 81503 11011 21021 39785 49985 53010 77172 8802/ 333 88511 555 69928=
26961 32460 81403 11012 21026 39807 49999 52005 885// 333 88710=
26966 /1560 81603 11004 21022 39838 40014 53007 78582 869// 555 69908=
27008 11598 71204 11060 21090 39958 10134 52006 60042 70272 87500 333 11041 87631 555 51064 53010=
27199 12998 01102 11193 21212 30119 40336 52007 60002 333 11170 91004 91105 93609 555 51175 53005=
27223 12899 51306 11088 21142 30036 40192 52009 60002 85030 333   11048 91010 91111 555   53011=
27333 11984 31505 11105 21185 30057 40223 51011 60002 73632 80001 333   11058 91111 555   53012=
27369 12997 31502 11161 21187 30141 40291 52008 60002 83030 333 11139 91002 91105 555 51159 53005=
27393 11498 81002 11176 21195 30154 40334 52011 69922 78582 83930 333 11164 91003 91104 555 51181 53005=
27417 22597 81303 11076 21127 39922 40136 54001 8457/ 333   60002=
27453 12997 30802 11131 21192 30122 40260 52003 60002 82031 333 11110 91004 91105 555 51118 53006=
27485 12997 61002 11161 21180 30149 40312 52009 60002 80005 333 11140 91004 91104 555 51171 53006=
27523 22997 71103 11094 21192 30005 40181 53002 80001 333   60002=
27595 12997 61102 11144 21163 30161 40322 52004 60002 80001 333 11129 555 51154 53005=
27752 12997 20902 11138 21199 30071 40256 52006 60002 80001 333 11106 91003 91105 555 51142 53008=
27760 12997 21502 11142 21185 30008 40275 53008 60002 80001 333 11113 91002 91104 555 51155 53007=
27983 12467 80502 11180 21197 30161 40303 53006 60002 886// 333   11155 88715 555   51181 53004=
28064 11596 80000 11178 21198 30309 40406 52009 69932 77172 885// 333 11173 93510 555 51186 53002=
28076 12597 81102 11124 21135 30342 40419 52014 69922 886// 333 11118 93506 555 50156 53006=
28214 12996 81102 11153 21173 30133 40364 52008 60002 8802/ 333 11149 91003 91103 555 51184 53004=
28366 11996 80801 11184 21211 30328 40398 51013 69902 77172 8802/ 333 11173 555 51173 53003=
28367 11963 81101 11187 21208 30256 40396 52011 69902 77172 8803/ 333 11153 555 51172 53003=
28382 11997 80601 11101 21111 30332 40406 52012 69932 77172 8802/ 333 11101 93503 555 51146 53002 91202=
28411 11697 81002 11128 21141 30139 40355 52010 69902 77172 8357/ 333 11127 91003 91104 555 51162 53004=
28418 11496 71102 11113 21133 30174 40352 52002 69922 78582 879// 333 11097 87919 91003 91104 555 51145 53004=
28481 11997 80000 11173 21199 30300 40406 52011 69902 77872 85025 333 11143 555 51170 53002=
28491 11996 80802 11094 21107 30291 40407 51013 69902 77172 8802/ 333 11094 555 51115 53004 91204=
28493 11596 80902 11115 21149 30319 40418 52017 69922 77172 885// 333 11087 555 51098 53004 91204=
28502 11596 60902 11110 21130 30216 40327 52006 69902 78582 86900 333 11100 91004 91105 555 51124 53005=
28506 12997 60000 11134 21153 30214 40336 52004 69922 8603/ 333 11098 555 51117 53004=
28573 11996 80901 11177 21204 30291 40404 52010 69922 77172 8802/ 333 11168 555 51180 53004 91204=
28593 11596 80602 11105 21135 30307 40409 52015 69922 77172 885// 333 11103 555 51123 53004=
28698 11496 80301 11171 21196 30241 40409 51012 69902 77171 8472/ 333 11147 84714 555 51171 53004=
28704 12998 00602 11183 21211 30211 40317 54000 60002 333 11132 555 51194 53004=
28797 11496 80901 11215 21234 30234 40408 51010 69922 77171 886// 333 11191 88714 555 51206 53004 91204=
28867 319// 00301 11217 21249 30083 40383 52009 71040 333 11168=
28901 11998 40701 11179 21203 30210 40310 53007 69902 77170 82024 333   11160 555   51180 53005=
28952 329// 00201 11234 21266 30162 40375 52007 333 11198=
29111 42999 00501 11359 21398 30385 40488 52015=
29209 42998 00501 11260 21342 30306 40450 52018=
29332 42998 00202 11351 21391 30307 40475 52013=
29551 42998 03501 11358 21406 30245 40459 52015=
29557 42998 00000 11386 21436 30148 40464 51015=
29594 429// 02702 11345 21368 39976 40423 52019=
29602 42598 80702 11128 21153 30262 40413 52013 885//=
29625 42998 00702 11202 21261 30229 40424 52015=
29636 42998 00101 11281 21322 30190 40438 52011=
29654 42999 00000 11283 21318 39734 40430 51010=
29698 429// 80000 11298 21317 39815 40396 52014 8802/=
29712 41698 80502 11137 21161 30257 40410 52011 72272 885//=
29724 41596 80802 11136 21166 30188 40406 52009 78582 8497/=
29726 42998 00403 11183 21220 30231 40414 52014=
29789 42999 82302 11249 21281 39045 40339 52004 8802/=
29802 /29// 00601 11245 21262 30252 40414 52010 333 11191 555 69902=
29807 329// 00000 11242 21277 30273 40405 52013 333 11171=
29813 42999 80602 11144 21171 30192 40401 52008 8805/=
29814 42999 00301 11214 21240 30252 40413 52009=
29822 42597 80402 11139 21168 30226 40402 52009 8355/=
29827 41596 80401 11160 21182 30229 40396 52008 78581 889//=
29915 42998 00401 11250 21282 30224 40403 52007=
29923 43/// /0403 11144 21159 30096 40391 51009=
29939 41597 80402 11120 21148 30081 40382 52006 78582 889//=20744 11597 80912 11114 21142 30264 40283 52018 60002 73632 8355/ 333 11106 91127 555 51128 53033


SMUS20 KWBC 191500
AAXX 19154